Terminal Aerodrome Forecast
Issued by NWS Norman, OK

Home | Current Version | Previous Version | Text Only | Print | Product List | Glossary On
Versions: 1 2 3 4 5 6 7 8 9 10 11 12 13 14 15 16 17 18 19 20 21 22 23 24 25 26 27 28
000
FTUS44 KOUN 221756
TAFOKC
TAF
KOKC 221756Z 2218/2318 12007KT 6SM BR BKN008 OVC015
     FM230300 12011KT 4SM BR OVC004
     FM230700 13011KT 4SM -RA OVC004 PROB30 2309/2314 2SM -TSRA
      BKN004 OVC012CB
     FM231400 15013KT 2SM BR OVC004
      TEMPO 2315/2318 2SM -RA OVC004=

USA.gov is the U.S. government's official web portal to all federal, state and local government web resources and services.